createdAt,value
2018-02-15T00:00:44.711Z,11.60
2018-02-15T00:01:48.514Z,11.50
2018-02-15T00:02:51.715Z,11.60
2018-02-15T00:03:43.807Z,11.60
2018-02-15T00:05:15.254Z,11.20
2018-02-15T00:05:57.246Z,11.50
2018-02-15T00:07:09.225Z,11.40
2018-02-15T00:08:08.623Z,11.50
2018-02-15T00:09:21.834Z,12.00
2018-02-15T00:11:21.541Z,11.60
2018-02-15T00:13:44.399Z,11.80
2018-02-15T00:14:53.511Z,11.30
2018-02-15T00:15:50.343Z,12.10
2018-02-15T00:16:58.236Z,11.50
2018-02-15T00:18:03.158Z,11.80
2018-02-15T00:19:19.855Z,11.70
2018-02-15T00:20:28.160Z,11.40
2018-02-15T00:21:19.255Z,11.60
2018-02-15T00:22:18.239Z,12.10
2018-02-15T00:23:29.816Z,11.80
2018-02-15T00:24:33.719Z,11.40
2018-02-15T00:25:37.723Z,11.90
2018-02-15T00:26:49.702Z,11.50
2018-02-15T00:27:53.193Z,12.20
2018-02-15T00:28:49.409Z,11.90
2018-02-15T00:30:08.259Z,12.10
2018-02-15T00:32:26.298Z,11.90
2018-02-15T00:33:15.450Z,12.40
2018-02-15T00:34:21.703Z,12.40
2018-02-15T00:35:40.552Z,12.00
2018-02-15T00:36:34.006Z,11.90
2018-02-15T00:37:50.504Z,11.60
2018-02-15T00:38:51.841Z,12.20
2018-02-15T00:39:55.325Z,11.90
2018-02-15T00:41:07.928Z,12.50
2018-02-15T00:42:11.209Z,11.50
2018-02-15T00:43:08.043Z,12.00
2018-02-15T00:44:17.265Z,11.50
2018-02-15T00:45:11.537Z,11.70
2018-02-15T00:47:25.384Z,11.60
2018-02-15T00:48:40.703Z,11.70
2018-02-15T00:49:39.008Z,11.90
2018-02-15T00:50:41.789Z,11.40
2018-02-15T00:51:51.312Z,11.80
2018-02-15T00:53:07.499Z,11.40
2018-02-15T00:54:02.383Z,11.60
2018-02-15T00:55:09.673Z,11.30
2018-02-15T00:56:16.427Z,12.10
2018-02-15T00:57:17.356Z,11.40
2018-02-15T00:58:26.271Z,11.90
2018-02-15T00:59:31.912Z,11.60
2018-02-15T01:00:43.901Z,11.40
2018-02-15T01:01:48.821Z,11.70
2018-02-15T01:02:52.202Z,11.70
2018-02-15T01:03:52.217Z,11.30
2018-02-15T01:06:14.963Z,11.80
2018-02-15T01:07:02.476Z,11.90
2018-02-15T01:08:15.494Z,11.50
2018-02-15T01:09:26.861Z,11.20
2018-02-15T01:10:16.319Z,11.60
2018-02-15T01:12:32.616Z,12.10
2018-02-15T01:13:43.681Z,11.40
2018-02-15T01:14:53.521Z,11.20
2018-02-15T01:16:00.797Z,11.50
2018-02-15T01:16:57.748Z,11.60
2018-02-15T01:18:06.648Z,11.70
2018-02-15T01:19:09.727Z,10.80
2018-02-15T01:20:10.450Z,11.30
2018-02-15T01:21:17.217Z,11.20
2018-02-15T01:23:27.673Z,11.30
2018-02-15T01:24:44.168Z,11.20
2018-02-15T01:25:40.286Z,11.40
2018-02-15T01:26:44.394Z,11.50
2018-02-15T01:27:51.562Z,11.30
2018-02-15T01:29:00.172Z,10.50
2018-02-15T01:30:09.192Z,11.40
2018-02-15T01:31:08.171Z,10.90
2018-02-15T01:32:20.776Z,11.30
2018-02-15T01:33:30.407Z,10.60
2018-02-15T01:34:25.088Z,10.90
2018-02-15T01:35:33.903Z,11.30
2018-02-15T01:36:29.507Z,10.80
2018-02-15T01:37:44.771Z,11.20
2018-02-15T01:38:47.439Z,10.90
2018-02-15T01:39:53.287Z,11.40
2018-02-15T01:40:56.163Z,11.10
2018-02-15T01:42:03.028Z,11.40
2018-02-15T01:43:07.847Z,11.60
2018-02-15T01:44:21.370Z,10.70
2018-02-15T01:45:24.040Z,11.30
2018-02-15T01:46:29.268Z,11.40
2018-02-15T01:47:34.200Z,10.90
2018-02-15T01:48:49.660Z,11.10
2018-02-15T01:49:52.946Z,11.00
2018-02-15T01:50:54.387Z,11.10
2018-02-15T01:52:04.736Z,10.40
2018-02-15T01:56:11.008Z,11.00
2018-02-15T01:57:20.847Z,10.40
2018-02-15T01:58:28.226Z,10.70
2018-02-15T01:59:32.126Z,10.90
2018-02-15T02:00:40.733Z,10.50
2018-02-15T02:01:52.517Z,11.00
2018-02-15T02:02:44.637Z,11.00
2018-02-15T02:03:50.691Z,11.40
2018-02-15T02:04:59.709Z,11.60
2018-02-15T02:06:05.754Z,10.40
2018-02-15T02:07:13.236Z,10.40
2018-02-15T02:08:16.929Z,10.90
2018-02-15T02:09:33.831Z,11.20
2018-02-15T02:10:35.377Z,10.90
2018-02-15T02:11:28.012Z,11.20
2018-02-15T02:12:45.935Z,10.60
2018-02-15T02:13:39.186Z,11.10
2018-02-15T02:14:50.355Z,10.60
2018-02-15T02:15:55.991Z,11.00
2018-02-15T02:17:00.301Z,11.10
2018-02-15T02:18:06.041Z,10.70
2018-02-15T02:19:07.175Z,10.90
2018-02-15T02:20:17.035Z,11.10
2018-02-15T02:21:19.589Z,10.90
2018-02-15T02:23:25.327Z,10.90
2018-02-15T02:24:41.925Z,10.50
2018-02-15T02:25:53.814Z,10.90
2018-02-15T02:26:45.624Z,10.70
2018-02-15T02:27:54.646Z,11.30
2018-02-15T02:28:57.005Z,11.10
2018-02-15T02:30:01.108Z,10.40
2018-02-15T02:33:23.964Z,10.90
2018-02-15T02:35:34.943Z,10.80
2018-02-15T02:36:35.763Z,11.20
2018-02-15T02:37:41.094Z,10.60
2018-02-15T02:38:44.378Z,10.40
2018-02-15T02:39:59.960Z,10.40
2018-02-15T02:41:01.901Z,10.40
2018-02-15T02:42:06.721Z,10.60
2018-02-15T02:43:16.763Z,10.10
2018-02-15T02:44:19.740Z,10.10
2018-02-15T02:45:22.513Z,10.40
2018-02-15T02:46:38.493Z,10.20
2018-02-15T02:47:31.638Z,10.20
2018-02-15T02:48:47.211Z,10.80
2018-02-15T02:49:50.601Z,10.00
2018-02-15T02:50:46.510Z,10.50
2018-02-15T02:51:58.701Z,10.40
2018-02-15T02:53:03.317Z,10.20
2018-02-15T02:55:19.919Z,10.20
2018-02-15T02:56:20.541Z,10.50
2018-02-15T02:57:21.572Z,10.40
2018-02-15T02:58:31.408Z,10.00
2018-02-15T02:59:32.952Z,10.30
2018-02-15T03:00:45.974Z,10.50
2018-02-15T03:01:55.233Z,10.60
2018-02-15T03:03:05.674Z,10.10
2018-02-15T03:03:54.288Z,10.30
2018-02-15T03:05:04.732Z,10.70
2018-02-15T03:06:04.431Z,10.60
2018-02-15T03:07:15.292Z,10.50
2018-02-15T03:08:18.064Z,10.30
2018-02-15T03:09:26.979Z,10.20
2018-02-15T03:10:23.914Z,10.20
2018-02-15T03:11:31.296Z,10.40
2018-02-15T03:12:48.914Z,10.30
2018-02-15T03:13:45.132Z,9.90
2018-02-15T03:14:46.573Z,10.10
2018-02-15T03:16:01.018Z,10.40
2018-02-15T03:17:12.600Z,10.30
2018-02-15T03:18:10.455Z,10.10
2018-02-15T03:19:07.594Z,9.90
2018-02-15T03:20:22.961Z,9.90
2018-02-15T03:21:30.135Z,10.50
2018-02-15T03:22:44.482Z,9.90
2018-02-15T03:23:34.246Z,10.30
2018-02-15T03:25:52.491Z,11.20
2018-02-15T03:27:02.426Z,10.30
2018-02-15T03:28:01.819Z,10.00
2018-02-15T03:29:09.609Z,10.30
2018-02-15T03:30:17.603Z,10.30
2018-02-15T03:31:27.238Z,10.50
2018-02-15T03:32:28.881Z,10.00
2018-02-15T03:33:26.637Z,9.90
2018-02-15T03:34:35.039Z,10.00
2018-02-15T03:35:40.985Z,10.40
2018-02-15T03:36:48.980Z,10.60
2018-02-15T03:37:44.381Z,11.20
2018-02-15T03:38:54.625Z,11.30
2018-02-15T03:40:07.739Z,11.30
2018-02-15T03:41:00.681Z,11.00
2018-02-15T03:42:01.406Z,11.30
2018-02-15T03:43:11.961Z,11.50
2018-02-15T03:45:39.108Z,11.40
2018-02-15T03:46:36.454Z,12.10
2018-02-15T03:47:50.492Z,12.40
2018-02-15T03:48:53.268Z,12.60
2018-02-15T03:49:43.446Z,12.10
2018-02-15T03:50:56.142Z,11.90
2018-02-15T03:52:04.344Z,11.70
2018-02-15T03:53:04.143Z,11.90
2018-02-15T03:54:12.241Z,11.60
2018-02-15T03:55:14.603Z,11.90
2018-02-15T03:56:24.951Z,12.10
2018-02-15T03:57:30.081Z,12.00
2018-02-15T03:58:26.812Z,11.80
2018-02-15T03:59:41.767Z,11.90
2018-02-15T04:01:52.533Z,12.10
2018-02-15T04:02:51.720Z,12.30
2018-02-15T04:04:07.602Z,11.90
2018-02-15T04:05:12.524Z,12.30
2018-02-15T04:06:08.230Z,11.90
2018-02-15T04:07:10.590Z,11.20
2018-02-15T04:08:28.006Z,11.70
2018-02-15T04:09:28.728Z,11.80
2018-02-15T04:12:41.242Z,11.40
2018-02-15T04:13:56.610Z,11.10
2018-02-15T04:14:57.436Z,11.40
2018-02-15T04:15:56.623Z,11.90
2018-02-15T04:17:19.773Z,11.50
2018-02-15T04:18:18.655Z,12.00
2018-02-15T04:19:13.235Z,12.00
2018-02-15T04:20:29.420Z,12.00
2018-02-15T04:21:34.546Z,11.60
2018-02-15T04:22:30.048Z,11.30
2018-02-15T04:23:39.066Z,11.80
2018-02-15T04:24:41.838Z,12.20
2018-02-15T04:25:51.983Z,11.60
2018-02-15T04:26:58.544Z,11.70
2018-02-15T04:28:02.753Z,12.30
2018-02-15T04:29:10.641Z,11.90
2018-02-15T04:30:10.750Z,12.70
2018-02-15T04:31:29.292Z,12.20
2018-02-15T04:32:14.859Z,11.90
2018-02-15T04:33:30.843Z,11.80
2018-02-15T04:35:33.734Z,11.70
2018-02-15T04:36:43.355Z,12.10
2018-02-15T04:37:49.813Z,12.40
2018-02-15T04:39:01.703Z,12.50
2018-02-15T04:41:06.526Z,12.60
2018-02-15T04:42:22.814Z,13.10
2018-02-15T04:43:12.478Z,11.70
2018-02-15T04:44:29.384Z,12.30
2018-02-15T04:45:34.513Z,12.30
2018-02-15T04:46:39.023Z,12.70
2018-02-15T04:47:44.456Z,12.60
2018-02-15T04:48:48.558Z,13.10
2018-02-15T04:49:54.607Z,13.50
2018-02-15T04:50:59.637Z,13.10
2018-02-15T04:52:00.255Z,12.70
2018-02-15T04:53:12.752Z,13.60
2018-02-15T04:54:17.471Z,13.40
2018-02-15T04:55:26.386Z,13.50
2018-02-15T04:57:32.147Z,14.30
2018-02-15T04:58:39.824Z,14.10
2018-02-15T04:59:50.994Z,14.60
2018-02-15T05:01:47.011Z,15.00
2018-02-15T05:03:04.948Z,15.30
2018-02-15T05:04:12.940Z,15.00
2018-02-15T05:05:28.505Z,14.90
2018-02-15T05:06:35.783Z,16.40
2018-02-15T05:08:33.646Z,15.20
2018-02-15T05:09:34.984Z,16.30
2018-02-15T05:10:38.678Z,16.10
2018-02-15T05:11:48.412Z,16.00
2018-02-15T05:13:00.607Z,15.80
2018-02-15T05:14:00.920Z,16.80
2018-02-15T05:15:14.241Z,16.30
2018-02-15T05:16:08.306Z,16.60
2018-02-15T05:17:21.011Z,16.80
2018-02-15T05:18:26.660Z,16.50
2018-02-15T05:19:23.584Z,17.70
2018-02-15T05:21:43.771Z,17.40
2018-02-15T05:22:44.189Z,17.00
2018-02-15T05:23:39.589Z,16.80
2018-02-15T05:25:16.253Z,17.70
2018-02-15T05:26:31.928Z,16.70
2018-02-15T05:27:51.494Z,16.70
2018-02-15T05:30:02.873Z,17.80
2018-02-15T05:30:51.310Z,18.10
2018-02-15T05:31:46.605Z,18.70
2018-02-15T05:33:16.617Z,18.10
2018-02-15T05:34:57.072Z,17.50
2018-02-15T05:36:49.921Z,18.10
2018-02-15T05:38:55.768Z,17.90
2018-02-15T05:39:51.271Z,18.00
2018-02-15T05:41:01.527Z,18.10
2018-02-15T05:42:26.920Z,17.20
2018-02-15T05:43:36.860Z,17.30
2018-02-15T05:44:31.950Z,17.80
2018-02-15T05:46:04.934Z,18.10
2018-02-15T05:46:40.054Z,18.30
2018-02-15T05:47:52.663Z,18.30
2018-02-15T05:49:12.436Z,18.30
2018-02-15T05:51:53.300Z,18.10
2018-02-15T05:52:44.602Z,17.60
2018-02-15T05:54:00.993Z,18.10
2018-02-15T05:54:28.856Z,18.00
2018-02-15T05:55:49.130Z,19.00
2018-02-15T05:57:15.351Z,18.60
2018-02-15T05:59:19.973Z,17.90
2018-02-15T06:00:40.358Z,18.60
2018-02-15T06:01:35.960Z,17.80
2018-02-15T06:02:40.063Z,18.30
2018-02-15T06:03:48.269Z,18.50
2018-02-15T06:04:38.132Z,19.10
2018-02-15T06:06:00.978Z,17.70
2018-02-15T06:06:58.218Z,18.00
2018-02-15T06:08:08.668Z,18.50
2018-02-15T06:09:05.091Z,19.00
2018-02-15T06:10:02.027Z,18.60
2018-02-15T06:12:08.396Z,18.80
2018-02-15T06:13:10.341Z,18.20
2018-02-15T06:15:18.957Z,19.70
2018-02-15T06:16:12.412Z,19.30
2018-02-15T06:17:21.281Z,19.30
2018-02-15T06:18:31.574Z,18.00
2018-02-15T06:20:32.816Z,18.60
2018-02-15T06:21:38.250Z,19.00
2018-02-15T06:22:44.402Z,19.20
2018-02-15T06:24:15.232Z,19.20
2018-02-15T06:26:01.319Z,19.00
2018-02-15T06:27:10.644Z,18.70
2018-02-15T06:28:23.569Z,19.40
2018-02-15T06:29:37.386Z,18.90
2018-02-15T06:30:28.073Z,19.40
2018-02-15T06:31:49.793Z,18.80
2018-02-15T06:33:46.117Z,19.30
2018-02-15T06:34:57.489Z,19.20
2018-02-15T06:35:51.864Z,19.10
2018-02-15T06:36:51.768Z,18.40
2018-02-15T06:37:52.084Z,18.30
2018-02-15T06:38:56.186Z,19.60
2018-02-15T06:39:55.271Z,19.20
2018-02-15T06:41:16.168Z,19.00
2018-02-15T06:42:21.092Z,18.40
2018-02-15T06:43:29.905Z,18.80
2018-02-15T06:44:40.771Z,19.40
2018-02-15T06:46:47.277Z,19.20
2018-02-15T06:47:51.438Z,19.00
2018-02-15T06:48:45.813Z,18.70
2018-02-15T06:50:03.538Z,19.40
2018-02-15T06:51:00.569Z,18.60
2018-02-15T06:52:12.048Z,18.80
2018-02-15T06:53:14.614Z,19.20
2018-02-15T06:54:29.979Z,18.60
2018-02-15T06:55:28.349Z,18.80
2018-02-15T06:56:22.622Z,17.30
2018-02-15T07:00:55.627Z,18.80
2018-02-15T07:01:58.399Z,17.70
2018-02-15T07:03:06.082Z,17.50
2018-02-15T07:04:10.800Z,16.80
2018-02-15T07:05:15.722Z,17.40
2018-02-15T07:06:18.596Z,17.60
2018-02-15T07:07:30.612Z,16.90
2018-02-15T07:08:35.105Z,16.80
2018-02-15T07:09:45.139Z,17.00
2018-02-15T07:10:44.940Z,16.40
2018-02-15T07:11:46.483Z,15.80
2018-02-15T07:13:00.520Z,16.00
2018-02-15T07:14:07.080Z,15.90
2018-02-15T07:15:13.886Z,15.90
2018-02-15T07:16:06.787Z,16.40
2018-02-15T07:17:24.613Z,16.10
2018-02-15T07:18:21.445Z,15.60
2018-02-15T07:19:34.048Z,15.50
2018-02-15T07:20:44.909Z,16.00
2018-02-15T07:21:45.840Z,15.60
2018-02-15T07:22:50.554Z,15.10
2018-02-15T07:23:55.477Z,15.80
2018-02-15T07:26:04.297Z,14.90
2018-02-15T07:27:07.989Z,14.60
2018-02-15T07:28:13.014Z,13.50
2018-02-15T07:29:39.543Z,14.80
2018-02-15T07:30:42.111Z,15.00
2018-02-15T07:31:29.830Z,14.60
2018-02-15T07:33:00.762Z,14.00
2018-02-15T07:33:42.139Z,14.20
2018-02-15T07:34:53.609Z,14.40
2018-02-15T07:36:02.936Z,13.60
2018-02-15T07:37:21.782Z,13.10
2018-02-15T07:38:10.012Z,13.90
2018-02-15T07:39:01.523Z,13.80
2018-02-15T07:41:22.936Z,13.80
2018-02-15T07:42:52.536Z,14.00
2018-02-15T07:43:42.107Z,12.50
2018-02-15T07:46:04.334Z,13.20
2018-02-15T07:46:43.758Z,12.50
2018-02-15T07:48:41.621Z,12.60
2018-02-15T07:49:30.467Z,12.00
2018-02-15T07:51:14.609Z,12.60
2018-02-15T07:52:52.401Z,11.90
2018-02-15T07:54:09.100Z,11.50
2018-02-15T07:54:45.291Z,10.90
2018-02-15T07:55:55.698Z,11.00
2018-02-15T07:57:10.964Z,11.10
2018-02-15T07:58:03.090Z,11.70
2018-02-15T08:00:25.936Z,11.10
2018-02-15T08:01:07.306Z,10.60
2018-02-15T08:02:21.547Z,9.90
2018-02-15T08:03:52.785Z,10.00
2018-02-15T08:04:34.358Z,9.80
2018-02-15T08:05:49.011Z,10.30
2018-02-15T08:07:54.659Z,10.00
2018-02-15T08:08:55.276Z,9.90
2018-02-15T08:10:01.940Z,9.80
2018-02-15T08:11:03.686Z,9.40
2018-02-15T08:12:15.573Z,9.70
2018-02-15T08:13:16.298Z,9.60
2018-02-15T08:14:33.406Z,9.80
2018-02-15T08:15:34.231Z,9.10
2018-02-15T08:16:39.767Z,9.60
2018-02-15T08:17:46.848Z,9.20
2018-02-15T08:20:07.451Z,9.00
2018-02-15T08:20:54.338Z,9.30
2018-02-15T08:22:03.866Z,8.70
2018-02-15T08:23:07.359Z,8.90
2018-02-15T08:24:37.264Z,9.20
2018-02-15T08:25:17.916Z,9.00
2018-02-15T08:26:18.948Z,9.70
2018-02-15T08:28:34.325Z,9.40
2018-02-15T08:31:02.803Z,9.00
2018-02-15T08:31:50.216Z,9.80
2018-02-15T08:32:57.902Z,9.40
2018-02-15T08:34:05.282Z,9.50
2018-02-15T08:35:17.065Z,9.40
2018-02-15T08:37:26.810Z,9.90
2018-02-15T08:38:26.200Z,8.90
2018-02-15T08:39:43.820Z,9.30
2018-02-15T08:40:34.816Z,9.60
2018-02-15T08:41:32.569Z,9.60
2018-02-15T08:42:58.589Z,9.60
2018-02-15T08:43:49.175Z,8.90
2018-02-15T08:45:04.950Z,9.00
2018-02-15T08:46:15.914Z,9.50
2018-02-15T08:47:00.772Z,9.10
2018-02-15T08:48:20.126Z,9.20
2018-02-15T08:49:23.820Z,9.40
2018-02-15T08:50:27.726Z,9.80
2018-02-15T08:52:27.833Z,9.20
2018-02-15T08:53:39.001Z,9.60
2018-02-15T08:54:40.237Z,9.80
2018-02-15T08:56:56.637Z,9.50
2018-02-15T08:57:59.821Z,9.70
2018-02-15T08:59:05.763Z,9.50
2018-02-15T09:00:12.426Z,9.50
2018-02-15T09:01:31.379Z,9.30
2018-02-15T09:02:33.023Z,9.90
2018-02-15T09:03:37.125Z,9.40
2018-02-15T09:04:36.929Z,10.00
2018-02-15T09:05:48.403Z,10.00
2018-02-15T09:06:54.563Z,9.40
2018-02-15T09:07:43.299Z,9.80
2018-02-15T09:08:45.779Z,9.80
2018-02-15T09:09:52.018Z,9.60
2018-02-15T09:11:21.210Z,9.50
2018-02-15T09:13:23.985Z,10.00
2018-02-15T09:15:21.857Z,9.90
2018-02-15T09:16:45.810Z,9.80
2018-02-15T09:17:42.448Z,10.20
2018-02-15T09:18:36.206Z,10.30
2018-02-15T09:19:41.948Z,10.60
2018-02-15T09:20:53.017Z,10.60
2018-02-15T09:21:56.707Z,10.10
2018-02-15T09:23:06.033Z,10.40
2018-02-15T09:25:15.262Z,10.80
2018-02-15T09:26:28.992Z,10.70
2018-02-15T09:27:29.306Z,10.10
2018-02-15T09:29:37.922Z,9.40
2018-02-15T09:30:47.248Z,10.60
2018-02-15T09:31:51.964Z,10.60
2018-02-15T09:32:49.821Z,10.10
2018-02-15T09:34:00.681Z,10.10
2018-02-15T09:35:22.706Z,10.90
2018-02-15T09:36:18.415Z,11.10
2018-02-15T09:37:19.348Z,10.20
2018-02-15T09:38:23.137Z,10.40
2018-02-15T09:39:30.617Z,10.20
2018-02-15T09:41:49.167Z,10.30
2018-02-15T09:42:51.427Z,10.60
2018-02-15T09:43:51.128Z,10.40
2018-02-15T09:45:00.350Z,10.50
2018-02-15T09:46:05.374Z,10.50
2018-02-15T09:47:08.657Z,10.50
2018-02-15T09:48:09.177Z,10.20
2018-02-15T09:49:26.184Z,10.80
2018-02-15T09:50:30.490Z,10.80
2018-02-15T09:51:19.130Z,11.10
2018-02-15T09:52:32.766Z,11.00
2018-02-15T09:53:52.324Z,10.90
2018-02-15T09:54:52.842Z,11.20
2018-02-15T09:56:57.361Z,11.00
2018-02-15T09:58:07.812Z,11.10
2018-02-15T09:59:21.851Z,11.20
2018-02-15T10:00:03.117Z,11.70
2018-02-15T10:01:17.459Z,11.60
2018-02-15T10:02:26.170Z,11.30
2018-02-15T10:03:41.947Z,11.20
2018-02-15T10:04:39.190Z,11.80
2018-02-15T10:05:34.691Z,10.90
2018-02-15T10:06:50.161Z,10.90
2018-02-15T10:07:54.582Z,10.90
2018-02-15T10:09:03.998Z,10.30
2018-02-15T10:10:01.855Z,10.70
2018-02-15T10:11:13.330Z,11.00
2018-02-15T10:12:27.880Z,11.20
2018-02-15T10:13:15.911Z,10.80
2018-02-15T10:14:38.659Z,11.30
2018-02-15T10:15:38.553Z,11.70
2018-02-15T10:16:41.015Z,11.30
2018-02-15T10:17:38.358Z,11.10
2018-02-15T10:18:43.999Z,11.30
2018-02-15T10:19:58.956Z,11.40
2018-02-15T10:20:52.204Z,12.50
2018-02-15T10:21:54.669Z,12.20
2018-02-15T10:23:11.467Z,11.70
2018-02-15T10:24:07.278Z,12.70
2018-02-15T10:25:19.779Z,11.70
2018-02-15T10:26:29.308Z,12.90
2018-02-15T10:27:31.157Z,12.60
2018-02-15T10:28:41.712Z,12.60
2018-02-15T10:29:38.033Z,12.90
2018-02-15T10:30:49.544Z,13.00
2018-02-15T10:32:00.882Z,13.50
2018-02-15T10:32:59.148Z,13.00
2018-02-15T10:34:06.221Z,12.70
2018-02-15T10:35:02.748Z,12.20
2018-02-15T10:36:28.865Z,12.30
2018-02-15T10:38:31.132Z,12.90
2018-02-15T10:40:33.091Z,12.90
2018-02-15T10:42:53.380Z,12.70
2018-02-15T10:43:54.207Z,12.60
2018-02-15T10:46:13.576Z,12.60
2018-02-15T10:47:04.173Z,12.50
2018-02-15T10:48:12.257Z,13.20
2018-02-15T10:49:19.227Z,12.60
2018-02-15T10:50:22.003Z,12.50
2018-02-15T10:52:52.631Z,12.80
2018-02-15T10:53:41.476Z,13.40
2018-02-15T10:54:48.754Z,12.90
2018-02-15T10:55:54.494Z,13.50
2018-02-15T10:57:04.846Z,12.90
2018-02-15T10:58:07.412Z,12.60
2018-02-15T11:00:40.091Z,12.90
2018-02-15T11:01:22.075Z,13.00
2018-02-15T11:02:24.642Z,13.40
2018-02-15T11:03:45.234Z,12.50
2018-02-15T11:04:37.706Z,12.00
2018-02-15T11:05:49.239Z,12.60
2018-02-15T11:06:51.909Z,13.30
2018-02-15T11:07:49.355Z,12.60
2018-02-15T11:09:01.651Z,12.80
2018-02-15T11:09:56.436Z,11.20
2018-02-15T11:11:06.375Z,12.40
2018-02-15T11:12:17.852Z,12.80
2018-02-15T11:13:30.557Z,12.10
2018-02-15T11:15:34.871Z,13.20
2018-02-15T11:17:37.650Z,12.60
2018-02-15T11:18:52.300Z,10.80
2018-02-15T11:19:56.198Z,12.00
2018-02-15T11:21:07.161Z,11.50
2018-02-15T11:22:02.871Z,12.00
2018-02-15T11:24:15.068Z,10.40
2018-02-15T11:25:27.875Z,10.60
2018-02-15T11:26:36.893Z,10.10
2018-02-15T11:27:33.520Z,11.10
2018-02-15T11:28:42.130Z,10.90
2018-02-15T11:29:41.626Z,10.80
2018-02-15T11:31:06.207Z,10.90
2018-02-15T11:32:03.555Z,10.90
2018-02-15T11:32:55.266Z,10.40
2018-02-15T11:34:10.836Z,10.50
2018-02-15T11:35:07.875Z,9.70
2018-02-15T11:37:30.314Z,11.20
2018-02-15T11:38:31.550Z,10.60
2018-02-15T11:39:38.928Z,11.00
2018-02-15T11:40:43.341Z,10.10
2018-02-15T11:41:40.794Z,10.30
2018-02-15T11:42:44.274Z,10.10
2018-02-15T11:43:53.601Z,10.10
2018-02-15T11:44:56.270Z,10.60
2018-02-15T11:47:18.710Z,10.20
2018-02-15T11:48:23.632Z,9.50
2018-02-15T11:49:13.911Z,9.90
2018-02-15T11:50:32.452Z,9.80
2018-02-15T11:51:35.838Z,10.80
2018-02-15T11:52:39.738Z,9.80
2018-02-15T11:53:49.882Z,9.70
2018-02-15T11:54:51.541Z,10.10
2018-02-15T11:57:00.041Z,9.60
2018-02-15T11:58:11.008Z,9.60
2018-02-15T11:59:13.341Z,10.10
2018-02-15T12:00:16.957Z,9.40
2018-02-15T12:01:26.077Z,9.40
2018-02-15T12:03:38.379Z,8.60
2018-02-15T12:04:31.839Z,8.40
2018-02-15T12:05:38.803Z,8.90
2018-02-15T12:06:49.357Z,8.70
2018-02-15T12:07:57.659Z,8.90
2018-02-15T12:09:01.559Z,8.70
2018-02-15T12:11:05.769Z,9.30
2018-02-15T12:12:15.405Z,8.90
2018-02-15T12:13:16.546Z,9.00
2018-02-15T12:14:36.101Z,9.20
2018-02-15T12:15:27.300Z,8.60
2018-02-15T12:16:33.966Z,8.80
2018-02-15T12:17:40.628Z,8.90
2018-02-15T12:18:40.845Z,9.10
2018-02-15T12:19:54.161Z,8.80
2018-02-15T12:20:56.830Z,8.60
2018-02-15T12:22:11.377Z,8.50
2018-02-15T12:23:16.608Z,8.70
2018-02-15T12:24:10.673Z,8.70
2018-02-15T12:25:29.215Z,8.30
2018-02-15T12:26:30.040Z,8.50
2018-02-15T12:27:35.993Z,7.90
2018-02-15T12:28:37.631Z,8.20
2018-02-15T12:29:44.517Z,8.40
2018-02-15T12:30:55.669Z,8.50
2018-02-15T12:31:56.394Z,8.30
2018-02-15T12:33:01.110Z,8.20
2018-02-15T12:34:03.680Z,8.50
2018-02-15T12:35:07.472Z,8.70
2018-02-15T12:37:26.227Z,9.00
2018-02-15T12:38:31.762Z,9.20
2018-02-15T12:39:28.701Z,8.50
2018-02-15T12:40:41.402Z,8.60
2018-02-15T12:41:37.928Z,8.50
2018-02-15T12:42:48.380Z,9.00
2018-02-15T12:43:53.201Z,8.50
2018-02-15T12:45:03.241Z,8.90
2018-02-15T12:46:08.471Z,8.20
2018-02-15T12:47:16.671Z,8.50
2018-02-15T12:48:18.316Z,9.30
2018-02-15T12:49:36.859Z,9.40
2018-02-15T12:50:32.562Z,8.70
2018-02-15T12:51:40.660Z,9.30
2018-02-15T12:53:45.731Z,8.30
2018-02-15T12:54:54.196Z,9.60
2018-02-15T12:57:06.601Z,8.90
2018-02-15T12:58:10.301Z,9.20
2018-02-15T12:59:16.036Z,9.60
2018-02-15T13:00:14.611Z,8.70
2018-02-15T13:01:37.358Z,8.70
2018-02-15T13:02:38.382Z,9.10
2018-02-15T13:03:37.262Z,9.20
2018-02-15T13:04:35.937Z,9.30
2018-02-15T13:05:48.438Z,9.10
2018-02-15T13:07:54.615Z,9.50
2018-02-15T13:09:01.566Z,8.90
2018-02-15T13:10:09.155Z,9.30
2018-02-15T13:11:12.949Z,8.90
2018-02-15T13:12:25.138Z,9.10
2018-02-15T13:13:32.723Z,9.40
2018-02-15T13:14:29.154Z,9.20
2018-02-15T13:15:30.279Z,9.30
2018-02-15T13:16:44.858Z,9.30
2018-02-15T13:17:46.269Z,8.80
2018-02-15T13:18:57.034Z,9.00
2018-02-15T13:19:55.702Z,9.10
2018-02-15T13:20:54.488Z,9.00
2018-02-15T13:22:03.297Z,9.20
2018-02-15T13:23:16.819Z,9.20
2018-02-15T13:24:10.783Z,9.20
2018-02-15T13:26:41.314Z,9.40
2018-02-15T13:27:34.564Z,9.10
2018-02-15T13:28:39.897Z,9.20
2018-02-15T13:29:41.334Z,9.20
2018-02-15T13:30:52.818Z,10.10
2018-02-15T13:31:56.709Z,10.00
2018-02-15T13:33:00.299Z,9.70
2018-02-15T13:34:14.641Z,9.70
2018-02-15T13:36:13.222Z,9.90
2018-02-15T13:37:18.041Z,9.90
2018-02-15T13:38:32.390Z,10.50
2018-02-15T13:39:48.473Z,9.90
2018-02-15T13:41:37.320Z,10.10
2018-02-15T13:43:52.184Z,10.60
2018-02-15T13:44:58.957Z,9.80
2018-02-15T13:46:08.173Z,11.00
2018-02-15T13:47:08.999Z,10.80
2018-02-15T13:49:17.106Z,10.70
2018-02-15T13:50:42.300Z,10.80
2018-02-15T13:51:30.648Z,10.90
2018-02-15T13:52:34.637Z,10.80
2018-02-15T13:53:46.317Z,10.90
2018-02-15T13:54:52.878Z,10.90
2018-02-15T13:56:01.593Z,10.50
2018-02-15T13:56:59.751Z,10.20
2018-02-15T13:58:02.727Z,11.00
2018-02-15T13:59:10.720Z,10.90
2018-02-15T14:00:19.133Z,10.80
2018-02-15T14:01:26.916Z,10.70
2018-02-15T14:02:28.977Z,10.60
2018-02-15T14:03:34.710Z,10.30
2018-02-15T14:04:36.254Z,9.60
2018-02-15T14:05:41.380Z,10.00
2018-02-15T14:06:54.189Z,9.60
2018-02-15T14:07:52.455Z,9.70
2018-02-15T14:09:11.917Z,9.90
2018-02-15T14:10:04.682Z,10.10
2018-02-15T14:11:21.564Z,9.70
2018-02-15T14:13:21.775Z,9.10
2018-02-15T14:14:42.876Z,9.10
2018-02-15T14:15:35.819Z,8.80
2018-02-15T14:16:38.590Z,8.50
2018-02-15T14:17:41.668Z,8.40
2018-02-15T14:18:53.348Z,8.50
2018-02-15T14:20:10.047Z,8.70
2018-02-15T14:21:01.716Z,8.90
2018-02-15T14:22:17.029Z,7.80
2018-02-15T14:23:13.653Z,9.00
2018-02-15T14:24:21.656Z,8.80
2018-02-15T14:25:26.984Z,8.40
2018-02-15T14:26:29.968Z,8.50
2018-02-15T14:27:38.155Z,8.30
2018-02-15T14:28:42.878Z,8.60
2018-02-15T14:30:54.663Z,8.20
2018-02-15T14:32:00.402Z,8.20
2018-02-15T14:33:00.923Z,8.30
2018-02-15T14:34:19.065Z,8.70
2018-02-15T14:35:22.549Z,8.40
2018-02-15T14:36:23.573Z,8.40
2018-02-15T14:37:23.069Z,8.40
2018-02-15T14:38:35.467Z,8.30
2018-02-15T14:39:35.984Z,9.00
2018-02-15T14:41:52.075Z,8.20
2018-02-15T14:42:56.282Z,7.80
2018-02-15T14:44:11.443Z,9.80
2018-02-15T14:45:07.867Z,9.10
2018-02-15T14:46:12.177Z,8.60
2018-02-15T14:47:17.881Z,8.30
2018-02-15T14:48:28.880Z,9.00
2018-02-15T14:49:24.287Z,9.10
2018-02-15T14:50:41.079Z,8.40
2018-02-15T14:51:34.941Z,7.80
2018-02-15T14:52:53.793Z,7.80
2018-02-15T14:53:58.611Z,8.00
2018-02-15T14:55:02.412Z,8.00
2018-02-15T14:56:19.411Z,8.20
2018-02-15T14:58:21.003Z,8.00
2018-02-15T14:59:20.048Z,7.80
2018-02-15T15:02:38.405Z,7.70
2018-02-15T15:03:43.218Z,8.10
2018-02-15T15:04:48.244Z,7.90
2018-02-15T15:05:52.861Z,8.40
2018-02-15T15:07:05.671Z,8.00
2018-02-15T15:10:17.257Z,8.40
2018-02-15T15:11:22.999Z,8.20
2018-02-15T15:12:48.818Z,8.90
2018-02-15T15:13:40.726Z,8.30
2018-02-15T15:16:45.872Z,10.00
2018-02-15T15:18:00.116Z,9.10
2018-02-15T15:19:02.880Z,8.80
2018-02-15T15:20:07.708Z,9.10
2018-02-15T15:21:10.575Z,8.90
2018-02-15T15:22:14.882Z,8.50
2018-02-15T15:23:21.253Z,8.70
2018-02-15T15:24:28.529Z,9.20
2018-02-15T15:25:39.278Z,8.70
2018-02-15T15:26:44.811Z,8.60
2018-02-15T15:27:41.541Z,9.10
2018-02-15T15:28:52.509Z,8.70
2018-02-15T15:29:58.658Z,8.80
2018-02-15T15:30:59.193Z,8.60
2018-02-15T15:32:02.254Z,9.50
2018-02-15T15:33:06.767Z,8.50
2018-02-15T15:34:16.708Z,8.70
2018-02-15T15:35:24.504Z,9.30
2018-02-15T15:37:34.547Z,9.10
2018-02-15T15:38:38.959Z,8.80
2018-02-15T15:39:50.442Z,9.50
2018-02-15T15:40:57.722Z,9.30
2018-02-15T15:41:56.488Z,9.50
2018-02-15T15:42:59.267Z,9.60
2018-02-15T15:44:03.158Z,9.00
2018-02-15T15:45:03.994Z,9.80
2018-02-15T15:46:22.220Z,9.00
2018-02-15T15:47:22.737Z,9.60
2018-02-15T15:48:29.912Z,10.30
2018-02-15T15:49:28.385Z,9.60
2018-02-15T15:50:36.480Z,10.50
2018-02-15T15:51:46.320Z,9.70
2018-02-15T15:52:55.958Z,9.30
2018-02-15T15:53:54.831Z,9.90